^^
Station Historical Data
Daily Summary for January 21, 2018 Units:  English    Metric   Both
« Previous Day
Next Day »
Daily Weekly Monthly Yearly Custom
  High: Low: Average:
Temperature: TemperatureF °F 64.6 °F 73.1 °F
Dew Point: DewpointF °F 46.4 °F 53.9 °F
Humidity: Humidity% 28% 52%
Wind Speed: WindSpeedMPHmph 0.0mph 2.3mph
Wind Gust: WindSpeedGustMPHmph - -
Wind- - SW
Pressure: PressureIn in 29.60 in -
Precipitation: 0.00 in    
Historical Graphs
 
 
Tabular Data for January 21, 2018
Time Temperature Dew Point Pressure Wind Wind Speed Wind Gust Humidity Rainfall Rate (Hourly) solar Conditions
TemperatureF °F DewpointF °F PressureIn in Calm     Humidity% HourlyPrecipIn in SolarRadiationWatts/m^2 W/m2 Conditions
00:00 68.5 °F 56.3 °F 29.72 in Calm   1.0 mph 65% 0.00 in 0.0 W/m2
00:05 68.4 °F 56.5 °F 29.71 in Calm     66% 0.00 in 0.0 W/m2
00:10 68.4 °F 56.5 °F 29.72 in Calm   2.0 mph 66% 0.00 in 0.0 W/m2
00:15 68.2 °F 56.8 °F 29.71 in Calm   1.0 mph 67% 0.00 in 0.0 W/m2
00:20 68.2 °F 57.2 °F 29.71 in Calm     68% 0.00 in 0.0 W/m2
00:26 68.0 °F 57.0 °F 29.71 in Calm   1.0 mph 68% 0.00 in 0.0 W/m2
00:31 67.8 °F 56.8 °F 29.71 in Calm     68% 0.00 in 0.0 W/m2
00:36 67.8 °F 56.8 °F 29.70 in Calm     68% 0.00 in 0.0 W/m2
00:41 67.6 °F 57.0 °F 29.70 in Calm     69% 0.00 in 0.0 W/m2
00:46 67.6 °F 57.0 °F 29.70 in Calm     69% 0.00 in 0.0 W/m2
00:51 67.6 °F 57.0 °F 29.70 in Calm     69% 0.00 in 0.0 W/m2
00:56 67.6 °F 57.0 °F 29.70 in Calm     69% 0.00 in 0.0 W/m2
01:01 67.5 °F 57.0 °F 29.69 in Calm   1.0 mph 69% 0.00 in 0.0 W/m2
01:07 67.5 °F 57.0 °F 29.69 in Calm   1.0 mph 69% 0.00 in 0.0 W/m2
01:12 67.5 °F 57.0 °F 29.69 in Calm     69% 0.00 in 0.0 W/m2
01:17 67.5 °F 57.0 °F 29.68 in Calm     69% 0.00 in 0.0 W/m2
01:22 67.5 °F 57.4 °F 29.68 in Calm     70% 0.00 in 0.0 W/m2
01:27 67.5 °F 57.0 °F 29.68 in Calm     69% 0.00 in 0.0 W/m2
01:32 67.5 °F 57.0 °F 29.67 in Calm   1.0 mph 69% 0.00 in 0.0 W/m2
01:37 67.5 °F 57.0 °F 29.68 in Calm     69% 0.00 in 0.0 W/m2
01:42 67.5 °F 57.0 °F 29.67 in Calm     69% 0.00 in 0.0 W/m2
01:48 67.5 °F 57.0 °F 29.67 in Calm     69% 0.00 in 0.0 W/m2
01:53 67.5 °F 57.0 °F 29.67 in Calm     69% 0.00 in 0.0 W/m2
01:58 67.5 °F 56.5 °F 29.67 in Calm     68% 0.00 in 0.0 W/m2
02:03 67.5 °F 57.0 °F 29.67 in Calm     69% 0.00 in 0.0 W/m2
02:08 67.5 °F 57.0 °F 29.67 in SE 0.9 mph 2.0 mph 69% 0.00 in 0.0 W/m2
02:13 67.5 °F 56.5 °F 29.67 in Calm   2.0 mph 68% 0.00 in 0.0 W/m2
02:18 67.5 °F 56.5 °F 29.67 in Calm     68% 0.00 in 0.0 W/m2
02:23 67.5 °F 56.5 °F 29.67 in SSE 2.0 mph 2.0 mph 68% 0.00 in 0.0 W/m2
02:29 67.3 °F 56.3 °F 29.66 in Calm     68% 0.00 in 0.0 W/m2
02:34 67.3 °F 56.3 °F 29.67 in Calm   1.0 mph 68% 0.00 in 0.0 W/m2
02:39 67.3 °F 56.3 °F 29.67 in Calm   1.0 mph 68% 0.00 in 0.0 W/m2
02:44 67.1 °F 56.1 °F 29.66 in Calm   3.0 mph 68% 0.00 in 0.0 W/m2
02:49 66.9 °F 55.9 °F 29.66 in Calm   3.0 mph 68% 0.00 in 0.0 W/m2
02:54 66.9 °F 55.6 °F 29.66 in ESE 0.9 mph 1.0 mph 67% 0.00 in 0.0 W/m2
03:00 66.9 °F 55.6 °F 29.66 in Calm   3.0 mph 67% 0.00 in 0.0 W/m2
03:05 66.9 °F 55.2 °F 29.66 in ESE 0.9 mph 3.0 mph 66% 0.00 in 0.0 W/m2
03:10 66.9 °F 54.3 °F 29.66 in Calm   1.0 mph 64% 0.00 in 0.0 W/m2
03:16 66.9 °F 54.0 °F 29.66 in Calm   1.0 mph 63% 0.00 in 0.0 W/m2
03:21 66.9 °F 54.0 °F 29.66 in Calm   2.0 mph 63% 0.00 in 0.0 W/m2
03:26 67.1 °F 53.6 °F 29.65 in East 0.9 mph 4.0 mph 62% 0.00 in 0.0 W/m2
03:31 67.3 °F 53.4 °F 29.65 in Calm   4.0 mph 61% 0.00 in 0.0 W/m2
03:36 67.5 °F 53.6 °F 29.65 in Calm   5.0 mph 61% 0.00 in 0.0 W/m2
03:41 67.6 °F 53.8 °F 29.65 in NE 2.0 mph 5.0 mph 61% 0.00 in 0.0 W/m2
03:46 67.8 °F 53.4 °F 29.65 in East 2.9 mph 6.0 mph 60% 0.00 in 0.0 W/m2
03:51 68.2 °F 53.8 °F 29.65 in Calm   8.0 mph 60% 0.00 in 0.0 W/m2
03:56 68.2 °F 53.8 °F 29.65 in Calm   3.0 mph 60% 0.00 in 0.0 W/m2
04:01 68.2 °F 53.2 °F 29.65 in ENE 2.0 mph 6.0 mph 59% 0.00 in 0.0 W/m2
04:07 68.2 °F 53.2 °F 29.65 in East 0.9 mph 4.0 mph 59% 0.00 in 0.0 W/m2
04:12 68.2 °F 53.8 °F 29.65 in Calm   2.0 mph 60% 0.00 in 0.0 W/m2
04:17 68.0 °F 53.6 °F 29.65 in ENE 0.9 mph 2.0 mph 60% 0.00 in 0.0 W/m2
04:22 67.8 °F 53.4 °F 29.65 in Calm   1.0 mph 60% 0.00 in 0.0 W/m2
04:27 67.6 °F 53.2 °F 29.65 in East 2.9 mph 3.0 mph 60% 0.00 in 0.0 W/m2
04:32 67.6 °F 53.2 °F 29.65 in Calm   1.0 mph 60% 0.00 in 0.0 W/m2
04:37 67.5 °F 53.1 °F 29.65 in Calm   1.0 mph 60% 0.00 in 0.0 W/m2
04:42 67.5 °F 52.7 °F 29.65 in Calm   4.0 mph 59% 0.00 in 0.0 W/m2
04:47 67.3 °F 52.5 °F 29.65 in Calm   4.0 mph 59% 0.00 in 0.0 W/m2
04:52 67.5 °F 52.7 °F 29.65 in East 2.9 mph 5.0 mph 59% 0.00 in 0.0 W/m2
04:58 67.3 °F 52.5 °F 29.65 in NE 2.9 mph 5.0 mph 59% 0.00 in 0.0 W/m2
05:03 67.3 °F 52.5 °F 29.65 in NNE 0.9 mph 6.0 mph 59% 0.00 in 0.0 W/m2
05:08 67.3 °F 52.9 °F 29.65 in NE 0.9 mph 4.0 mph 60% 0.00 in 0.0 W/m2
05:13 67.1 °F 52.7 °F 29.65 in East 2.0 mph 3.0 mph 60% 0.00 in 0.0 W/m2
05:18 66.9 °F 53.1 °F 29.65 in Calm   5.0 mph 61% 0.00 in 0.0 W/m2
05:23 66.7 °F 52.9 °F 29.66 in Calm   3.0 mph 61% 0.00 in 0.0 W/m2
05:28 66.7 °F 53.2 °F 29.66 in Calm   3.0 mph 62% 0.00 in 0.0 W/m2
05:33 66.6 °F 53.1 °F 29.66 in Calm   1.0 mph 62% 0.00 in 0.0 W/m2
05:39 66.6 °F 53.1 °F 29.66 in Calm     62% 0.00 in 0.0 W/m2
05:44 66.4 °F 53.4 °F 29.66 in Calm   2.0 mph 63% 0.00 in 0.0 W/m2
05:49 66.2 °F 53.6 °F 29.66 in Calm   2.0 mph 64% 0.00 in 0.0 W/m2
05:54 65.8 °F 53.2 °F 29.67 in Calm   1.0 mph 64% 0.00 in 0.0 W/m2
05:59 65.7 °F 53.6 °F 29.66 in Calm   1.0 mph 65% 0.00 in 0.0 W/m2
06:04 65.7 °F 53.6 °F 29.67 in Calm   2.0 mph 65% 0.00 in 0.0 W/m2
06:09 65.5 °F 53.8 °F 29.67 in ENE 0.9 mph 2.0 mph 66% 0.00 in 0.0 W/m2
06:14 65.5 °F 53.8 °F 29.67 in Calm   1.0 mph 66% 0.00 in 0.0 W/m2
06:19 65.1 °F 53.4 °F 29.67 in Calm   3.0 mph 66% 0.00 in 0.0 W/m2
06:25 65.1 °F 53.4 °F 29.67 in Calm   1.0 mph 66% 0.00 in 0.0 W/m2
06:30 64.9 °F 53.2 °F 29.68 in Calm     66% 0.00 in 0.0 W/m2
06:35 64.9 °F 53.2 °F 29.68 in Calm     66% 0.00 in 5.0 W/m2
06:40 64.8 °F 53.6 °F 29.68 in Calm     67% 0.00 in 9.0 W/m2
06:45 64.8 °F 53.6 °F 29.68 in SE 0.9 mph 2.0 mph 67% 0.00 in 12.0 W/m2
06:50 64.6 °F 53.4 °F 29.68 in Calm   2.0 mph 67% 0.00 in 21.0 W/m2
06:55 64.6 °F 53.4 °F 29.69 in Calm   1.0 mph 67% 0.00 in 28.0 W/m2
07:00 64.6 °F 53.4 °F 29.69 in Calm     67% 0.00 in 35.0 W/m2
07:05 64.6 °F 53.8 °F 29.69 in Calm   1.0 mph 68% 0.00 in 40.0 W/m2
07:11 64.8 °F 54.0 °F 29.69 in Calm   2.0 mph 68% 0.00 in 47.0 W/m2
07:16 64.9 °F 53.8 °F 29.69 in SSE 0.9 mph 3.0 mph 67% 0.00 in 69.0 W/m2
07:21 65.1 °F 53.4 °F 29.69 in SSE 2.0 mph 4.0 mph 66% 0.00 in 81.0 W/m2
07:26 65.5 °F 53.8 °F 29.69 in SSE 0.9 mph 3.0 mph 66% 0.00 in 100.0 W/m2
07:31 66.0 °F 54.0 °F 29.69 in SSE 2.0 mph 2.0 mph 65% 0.00 in 98.0 W/m2
07:36 66.6 °F 54.0 °F 29.69 in SE 0.9 mph 3.0 mph 64% 0.00 in 95.0 W/m2
07:41 66.9 °F 54.9 °F 29.69 in Calm   1.0 mph 65% 0.00 in 97.0 W/m2
07:51 68.4 °F 54.3 °F 29.69 in SSE 2.0 mph 4.0 mph 61% 0.00 in 204.0 W/m2
08:02 69.4 °F 54.0 °F 29.69 in Calm   1.0 mph 58% 0.00 in 121.0 W/m2
08:12 70.2 °F 53.8 °F 29.69 in Calm   1.0 mph 56% 0.00 in 135.0 W/m2
08:17 70.5 °F 54.1 °F 29.70 in Calm   1.0 mph 56% 0.00 in 135.0 W/m2
08:22 70.9 °F 54.3 °F 29.69 in Calm     56% 0.00 in 158.0 W/m2
08:27 71.1 °F 53.6 °F 29.70 in Calm     54% 0.00 in 162.0 W/m2
08:32 71.2 °F 54.3 °F 29.70 in Calm     55% 0.00 in 160.0 W/m2
08:37 71.6 °F 54.1 °F 29.70 in Calm     54% 0.00 in 172.0 W/m2
08:42 72.0 °F 54.0 °F 29.70 in Calm   1.0 mph 53% 0.00 in 178.0 W/m2
08:53 72.3 °F 54.1 °F 29.70 in Calm     53% 0.00 in 160.0 W/m2
08:58 72.7 °F 55.0 °F 29.70 in Calm     54% 0.00 in 162.0 W/m2
09:03 73.0 °F 54.3 °F 29.70 in Calm     52% 0.00 in 181.0 W/m2
09:08 73.2 °F 54.5 °F 29.70 in Calm     52% 0.00 in 193.0 W/m2
09:13 73.6 °F 54.3 °F 29.70 in Calm     51% 0.00 in 213.0 W/m2
09:18 73.8 °F 52.9 °F 29.70 in Calm     48% 0.00 in 214.0 W/m2
09:23 74.1 °F 53.2 °F 29.70 in Calm     48% 0.00 in 202.0 W/m2
09:28 74.7 °F 53.6 °F 29.70 in Calm     48% 0.00 in 207.0 W/m2
09:33 74.8 °F 52.7 °F 29.70 in Calm     46% 0.00 in 221.0 W/m2
09:39 75.0 °F 52.9 °F 29.70 in Calm   1.0 mph 46% 0.00 in 244.0 W/m2
09:44 75.2 °F 51.8 °F 29.70 in Calm   1.0 mph 44% 0.00 in 243.0 W/m2
09:49 75.4 °F 51.3 °F 29.70 in Calm   2.0 mph 43% 0.00 in 255.0 W/m2
09:54 75.7 °F 52.3 °F 29.70 in Calm   2.0 mph 44% 0.00 in 302.0 W/m2
09:59 75.9 °F 52.5 °F 29.70 in Calm   1.0 mph 44% 0.00 in 258.0 W/m2
10:04 76.3 °F 52.7 °F 29.70 in Calm   2.0 mph 44% 0.00 in 239.0 W/m2
10:09 76.5 °F 52.3 °F 29.71 in Calm   3.0 mph 43% 0.00 in 271.0 W/m2
10:15 77.2 °F 52.3 °F 29.71 in NNW 2.9 mph 4.0 mph 42% 0.00 in 986.0 W/m2
10:20 78.4 °F 51.4 °F 29.70 in NNE 0.9 mph 4.0 mph 39% 0.00 in 584.0 W/m2
10:25 79.2 °F 50.7 °F 29.71 in NW 4.0 mph 12.0 mph 37% 0.00 in 401.0 W/m2
10:35 79.2 °F 51.4 °F 29.71 in NNW 8.9 mph 13.0 mph 38% 0.00 in 561.0 W/m2
10:40 79.5 °F 51.6 °F 29.72 in NW 6.9 mph 13.0 mph 38% 0.00 in 703.0 W/m2
10:45 79.9 °F 51.3 °F 29.72 in North 8.1 mph 15.0 mph 37% 0.00 in 691.0 W/m2
10:50 79.7 °F 51.1 °F 29.71 in NNE 6.9 mph 12.0 mph 37% 0.00 in 969.0 W/m2
10:56 80.1 °F 52.2 °F 29.72 in NNW 4.0 mph 8.0 mph 38% 0.00 in 1148.0 W/m2
11:01 80.2 °F 51.6 °F 29.72 in NNW 2.9 mph 9.0 mph 37% 0.00 in 336.0 W/m2
11:06 80.1 °F 52.2 °F 29.72 in WNW 4.9 mph 9.0 mph 38% 0.00 in 367.0 W/m2
11:11 79.9 °F 52.0 °F 29.72 in North 2.9 mph 7.0 mph 38% 0.00 in 401.0 W/m2
11:16 80.4 °F 52.5 °F 29.72 in NW 8.1 mph 13.0 mph 38% 0.00 in 1114.0 W/m2
11:21 81.0 °F 52.2 °F 29.72 in Calm   8.0 mph 37% 0.00 in 1114.0 W/m2
11:26 81.3 °F 53.2 °F 29.71 in West 4.9 mph 12.0 mph 38% 0.00 in 747.0 W/m2
11:31 81.9 °F 53.1 °F 29.72 in WNW 4.9 mph 8.0 mph 37% 0.00 in 747.0 W/m2
11:37 82.8 °F 53.8 °F 29.71 in North 4.9 mph 7.0 mph 37% 0.00 in 1046.0 W/m2
11:42 83.1 °F 53.4 °F 29.71 in NNE 8.1 mph 11.0 mph 36% 0.00 in 1025.0 W/m2
11:47 82.9 °F 54.0 °F 29.70 in NW 0.9 mph 10.0 mph 37% 0.00 in 1025.0 W/m2
11:53 82.9 °F 54.0 °F 29.71 in North 6.0 mph 10.0 mph 37% 0.00 in 1165.0 W/m2
11:58 83.1 °F 53.4 °F 29.70 in NW 8.1 mph 8.1 mph 36% 0.00 in 1179.0 W/m2
12:03 83.5 °F 54.5 °F 29.70 in SSW 0.9 mph 9.0 mph 37% 0.00 in 1046.0 W/m2
12:08 83.7 °F 54.0 °F 29.70 in NNE 6.9 mph 13.0 mph 36% 0.00 in 1062.0 W/m2
12:13 83.7 °F 55.4 °F 29.69 in North 2.0 mph 7.0 mph 38% 0.00 in 1078.0 W/m2
12:18 84.2 °F 54.3 °F 29.69 in North 10.1 mph 14.0 mph 36% 0.00 in 1099.0 W/m2
12:23 84.4 °F 54.5 °F 29.69 in North 8.9 mph 9.0 mph 36% 0.00 in 724.0 W/m2
12:28 84.0 °F 54.9 °F 29.69 in West 11.0 mph 11.0 mph 37% 0.00 in 197.0 W/m2
12:34 83.1 °F 54.1 °F 29.69 in NNW 4.0 mph 4.0 mph 37% 0.00 in 209.0 W/m2
12:39 82.9 °F 54.7 °F 29.68 in WSW 2.9 mph 8.0 mph 38% 0.00 in 1148.0 W/m2
12:44 83.3 °F 54.3 °F 29.68 in West 0.9 mph 9.0 mph 37% 0.00 in 1074.0 W/m2
12:49 84.0 °F 54.1 °F 29.68 in NW 11.0 mph 17.0 mph 36% 0.00 in 1085.0 W/m2
12:54 84.2 °F 54.3 °F 29.68 in West 2.0 mph 12.0 mph 36% 0.00 in 1067.0 W/m2
12:59 84.4 °F 54.5 °F 29.67 in West 2.9 mph 9.0 mph 36% 0.00 in 1097.0 W/m2
13:04 84.9 °F 53.4 °F 29.67 in NW 2.9 mph 8.0 mph 34% 0.00 in 1192.0 W/m2
13:09 85.6 °F 53.2 °F 29.67 in NW 8.1 mph 15.0 mph 33% 0.00 in 1185.0 W/m2
13:14 85.6 °F 53.2 °F 29.67 in NNW 4.0 mph 10.0 mph 33% 0.00 in 420.0 W/m2
13:19 85.6 °F 53.2 °F 29.67 in WNW 2.0 mph 11.0 mph 33% 0.00 in 1134.0 W/m2
13:24 86.4 °F 53.1 °F 29.67 in North 2.0 mph 14.0 mph 32% 0.00 in 1143.0 W/m2
13:29 86.7 °F 53.4 °F 29.66 in NW 0.9 mph 10.0 mph 32% 0.00 in 1215.0 W/m2
13:34 87.1 °F 53.6 °F 29.66 in West 2.0 mph 12.0 mph 32% 0.00 in 1174.0 W/m2
13:40 87.3 °F 52.9 °F 29.66 in North 4.9 mph 10.0 mph 31% 0.00 in 1195.0 W/m2
13:45 87.3 °F 52.9 °F 29.65 in NNW 8.1 mph 9.0 mph 31% 0.00 in 1229.0 W/m2
13:50 87.1 °F 52.7 °F 29.65 in West 0.9 mph 11.0 mph 31% 0.00 in 390.0 W/m2
13:56 86.2 °F 52.9 °F 29.65 in SSW 0.9 mph 7.0 mph 32% 0.00 in 403.0 W/m2
14:01 85.6 °F 53.2 °F 29.65 in NNE 2.0 mph 10.0 mph 33% 0.00 in 320.0 W/m2
14:06 85.6 °F 53.2 °F 29.65 in NW 8.1 mph 12.0 mph 33% 0.00 in 271.0 W/m2
14:11 85.3 °F 52.9 °F 29.65 in North 4.0 mph 10.0 mph 33% 0.00 in 1134.0 W/m2
14:16 86.4 °F 53.1 °F 29.64 in NW 11.0 mph 14.0 mph 32% 0.00 in 1074.0 W/m2
14:21 86.9 °F 53.4 °F 29.64 in West 6.0 mph 15.0 mph 32% 0.00 in 1113.0 W/m2
14:26 87.4 °F 53.1 °F 29.63 in NNW 2.9 mph 8.0 mph 31% 0.00 in 1085.0 W/m2
14:31 88.2 °F 53.8 °F 29.63 in WSW 4.9 mph 8.0 mph 31% 0.00 in 237.0 W/m2
14:37 86.7 °F 54.1 °F 29.63 in WNW 6.9 mph 11.0 mph 33% 0.00 in 313.0 W/m2
14:42 86.0 °F 55.2 °F 29.63 in NNW 8.9 mph 11.0 mph 35% 0.00 in 1204.0 W/m2
14:47 86.5 °F 55.6 °F 29.63 in NNW 8.1 mph 11.0 mph 35% 0.00 in 1143.0 W/m2
14:52 86.7 °F 54.1 °F 29.63 in West 6.0 mph 16.0 mph 33% 0.00 in 1044.0 W/m2
14:57 86.7 °F 54.1 °F 29.62 in NNW 2.9 mph 16.0 mph 33% 0.00 in 1139.0 W/m2
15:02 87.3 °F 53.8 °F 29.62 in NNW 10.1 mph 14.0 mph 32% 0.00 in 956.0 W/m2
15:07 86.9 °F 49.8 °F 29.62 in NNW 13.0 mph 17.0 mph 28% 0.00 in 958.0 W/m2
15:12 86.2 °F 50.2 °F 29.62 in NNW 6.9 mph 14.0 mph 29% 0.00 in 705.0 W/m2
15:17 85.3 °F 52.2 °F 29.62 in North 13.0 mph 14.0 mph 32% 0.00 in 622.0 W/m2
15:22 84.0 °F 51.8 °F 29.62 in North 10.1 mph 15.0 mph 33% 0.00 in 207.0 W/m2
15:27 82.8 °F 49.8 °F 29.62 in North 8.9 mph 12.0 mph 32% 0.00 in 176.0 W/m2
15:32 81.9 °F 50.7 °F 29.62 in NE 11.0 mph 17.0 mph 34% 0.00 in 162.0 W/m2
15:37 80.6 °F 53.4 °F 29.62 in NNE 17.9 mph 22.0 mph 39% 0.00 in 179.0 W/m2
15:43 79.0 °F 54.0 °F 29.62 in NNE 6.9 mph 15.0 mph 42% 0.00 in 167.0 W/m2
15:48 78.4 °F 54.1 °F 29.61 in NW 10.1 mph 14.0 mph 43% 0.00 in 139.0 W/m2
15:53 77.9 °F 53.6 °F 29.61 in ENE 11.0 mph 14.0 mph 43% 0.00 in 121.0 W/m2
15:59 77.4 °F 53.1 °F 29.61 in West 8.1 mph 13.0 mph 43% 0.00 in 109.0 W/m2
16:04 77.0 °F 53.4 °F 29.61 in NNW 6.0 mph 10.0 mph 44% 0.00 in 104.0 W/m2
16:09 76.6 °F 53.8 °F 29.60 in NW 8.1 mph 12.0 mph 45% 0.00 in 104.0 W/m2
16:14 76.5 °F 54.1 °F 29.60 in NW 8.9 mph 11.0 mph 46% 0.00 in 102.0 W/m2
16:19 76.1 °F 53.8 °F 29.61 in North 4.9 mph 8.0 mph 46% 0.00 in 104.0 W/m2
16:24 76.1 °F 54.3 °F 29.61 in NNE 6.9 mph 7.0 mph 47% 0.00 in 107.0 W/m2
16:29 75.9 °F 54.3 °F 29.61 in Calm   8.0 mph 47% 0.00 in 105.0 W/m2
16:34 75.9 °F 54.3 °F 29.62 in NW 4.0 mph 7.0 mph 47% 0.00 in 100.0 W/m2
16:39 75.9 °F 54.3 °F 29.62 in NNW 2.9 mph 6.0 mph 47% 0.00 in 95.0 W/m2
16:45 75.9 °F 54.3 °F 29.62 in NW 4.0 mph 10.0 mph 47% 0.00 in 100.0 W/m2
16:50 75.7 °F 54.7 °F 29.61 in Calm   5.0 mph 48% 0.00 in 98.0 W/m2
16:55 75.9 °F 54.9 °F 29.61 in NNW 0.9 mph 8.0 mph 48% 0.00 in 93.0 W/m2
17:00 75.9 °F 54.9 °F 29.60 in Calm   6.0 mph 48% 0.00 in 84.0 W/m2
17:05 75.9 °F 54.9 °F 29.60 in NNE 2.0 mph 4.0 mph 48% 0.00 in 81.0 W/m2
17:10 75.9 °F 54.9 °F 29.60 in Calm   3.0 mph 48% 0.00 in 81.0 W/m2
17:15 75.9 °F 54.9 °F 29.60 in NNW 0.9 mph 3.0 mph 48% 0.00 in 90.0 W/m2
17:20 75.9 °F 54.9 °F 29.61 in NNW 0.9 mph 7.0 mph 48% 0.00 in 118.0 W/m2
17:25 75.9 °F 54.9 °F 29.61 in NNW 2.0 mph 4.0 mph 48% 0.00 in 171.0 W/m2
17:30 76.3 °F 55.2 °F 29.62 in NW 4.9 mph 14.0 mph 48% 0.00 in 207.0 W/m2
17:35 76.3 °F 55.2 °F 29.61 in NNW 6.9 mph 7.0 mph 48% 0.00 in 209.0 W/m2
17:40 76.3 °F 54.5 °F 29.61 in NNW 2.9 mph 6.0 mph 47% 0.00 in 174.0 W/m2
17:46 76.5 °F 55.4 °F 29.62 in North 2.0 mph 7.0 mph 48% 0.00 in 149.0 W/m2
17:51 76.5 °F 55.4 °F 29.62 in NE 4.9 mph 7.0 mph 48% 0.00 in 135.0 W/m2
17:56 76.6 °F 55.4 °F 29.62 in North 4.9 mph 5.0 mph 48% 0.00 in 114.0 W/m2
18:01 76.8 °F 55.6 °F 29.62 in NNE 2.0 mph 4.0 mph 48% 0.00 in 105.0 W/m2
18:07 76.8 °F 55.0 °F 29.63 in NNE 2.9 mph 8.0 mph 47% 0.00 in 114.0 W/m2
18:12 76.8 °F 54.5 °F 29.63 in NNW 8.1 mph 8.1 mph 46% 0.00 in 118.0 W/m2
18:17 76.6 °F 54.9 °F 29.63 in NNW 2.9 mph 6.0 mph 47% 0.00 in 178.0 W/m2
18:22 76.5 °F 55.4 °F 29.63 in North 4.9 mph 7.0 mph 48% 0.00 in 137.0 W/m2
18:27 76.3 °F 55.8 °F 29.63 in NNE 8.1 mph 13.0 mph 49% 0.00 in 116.0 W/m2
18:32 75.6 °F 55.6 °F 29.64 in NNE 4.9 mph 9.0 mph 50% 0.00 in 90.0 W/m2
18:37 74.7 °F 55.9 °F 29.64 in NNW 10.1 mph 11.0 mph 52% 0.00 in 76.0 W/m2
18:42 73.9 °F 56.3 °F 29.63 in NNW 4.9 mph 12.0 mph 54% 0.00 in 121.0 W/m2
18:47 73.8 °F 56.1 °F 29.63 in North 4.9 mph 10.0 mph 54% 0.00 in 77.0 W/m2
18:52 73.4 °F 56.3 °F 29.63 in NNW 6.0 mph 11.0 mph 55% 0.00 in 98.0 W/m2
18:57 73.2 °F 56.1 °F 29.63 in NNW 2.9 mph 8.0 mph 55% 0.00 in 105.0 W/m2
19:03 73.2 °F 56.1 °F 29.63 in North 2.9 mph 11.0 mph 55% 0.00 in 100.0 W/m2
19:08 73.6 °F 56.5 °F 29.63 in North 8.1 mph 8.1 mph 55% 0.00 in 79.0 W/m2
19:13 73.6 °F 56.5 °F 29.63 in NNE 4.0 mph 8.0 mph 55% 0.00 in 56.0 W/m2
19:18 73.6 °F 56.5 °F 29.64 in Calm   2.0 mph 55% 0.00 in 44.0 W/m2
19:23 73.6 °F 56.5 °F 29.64 in NNW 6.0 mph 8.0 mph 55% 0.00 in 35.0 W/m2
19:28 73.6 °F 56.8 °F 29.65 in NNW 2.0 mph 6.0 mph 56% 0.00 in 25.0 W/m2
19:33 73.2 °F 55.0 °F 29.65 in NNW 4.9 mph 8.0 mph 53% 0.00 in 19.0 W/m2
19:38 73.0 °F 55.4 °F 29.65 in NW 4.9 mph 6.0 mph 54% 0.00 in 16.0 W/m2
19:44 72.9 °F 55.2 °F 29.65 in NW 2.9 mph 7.0 mph 54% 0.00 in 12.0 W/m2
19:49 72.7 °F 55.0 °F 29.66 in Calm   3.0 mph 54% 0.00 in 9.0 W/m2
19:55 72.7 °F 55.6 °F 29.66 in Calm   6.0 mph 55% 0.00 in 0.0 W/m2
20:00 72.3 °F 55.8 °F 29.67 in NW 4.0 mph 5.0 mph 56% 0.00 in 0.0 W/m2
20:05 72.1 °F 55.6 °F 29.67 in WSW 2.0 mph 3.0 mph 56% 0.00 in 0.0 W/m2
20:10 72.0 °F 55.4 °F 29.67 in Calm   1.0 mph 56% 0.00 in 0.0 W/m2
20:15 71.8 °F 55.2 °F 29.67 in Calm   2.0 mph 56% 0.00 in 0.0 W/m2
20:20 71.6 °F 55.0 °F 29.67 in WSW 2.0 mph 2.0 mph 56% 0.00 in 0.0 W/m2
20:25 71.4 °F 55.9 °F 29.68 in WSW 2.0 mph 2.0 mph 58% 0.00 in 0.0 W/m2
20:31 71.1 °F 55.6 °F 29.68 in WSW 2.0 mph 3.0 mph 58% 0.00 in 0.0 W/m2
20:36 70.9 °F 55.8 °F 29.68 in WSW 2.0 mph 3.0 mph 59% 0.00 in 0.0 W/m2
20:41 70.5 °F 55.6 °F 29.69 in WSW 0.9 mph 3.0 mph 59% 0.00 in 0.0 W/m2
20:46 70.3 °F 55.4 °F 29.69 in Calm   3.0 mph 59% 0.00 in 0.0 W/m2
20:51 70.2 °F 55.2 °F 29.69 in Calm   2.0 mph 59% 0.00 in 0.0 W/m2
20:56 70.2 °F 55.6 °F 29.70 in Calm     60% 0.00 in 0.0 W/m2
21:01 70.0 °F 55.4 °F 29.70 in Calm     60% 0.00 in 0.0 W/m2
21:06 69.8 °F 55.2 °F 29.70 in Calm     60% 0.00 in 0.0 W/m2
21:11 69.6 °F 55.0 °F 29.70 in Calm     60% 0.00 in 0.0 W/m2
21:17 69.6 °F 55.0 °F 29.70 in Calm     60% 0.00 in 0.0 W/m2
21:22 69.4 °F 54.9 °F 29.70 in Calm     60% 0.00 in 0.0 W/m2
21:27 69.4 °F 55.4 °F 29.70 in Calm     61% 0.00 in 0.0 W/m2
21:32 69.3 °F 55.2 °F 29.70 in Calm     61% 0.00 in 0.0 W/m2
21:37 69.3 °F 55.2 °F 29.71 in Calm     61% 0.00 in 0.0 W/m2
21:42 69.1 °F 55.0 °F 29.71 in Calm     61% 0.00 in 0.0 W/m2
21:47 69.1 °F 55.6 °F 29.71 in Calm     62% 0.00 in 0.0 W/m2
21:52 68.9 °F 55.4 °F 29.71 in Calm     62% 0.00 in 0.0 W/m2
21:58 68.7 °F 55.2 °F 29.71 in Calm     62% 0.00 in 0.0 W/m2
22:08 68.5 °F 55.4 °F 29.71 in Calm     63% 0.00 in 0.0 W/m2
22:13 68.5 °F 55.4 °F 29.72 in Calm     63% 0.00 in 0.0 W/m2
22:23 68.4 °F 55.2 °F 29.72 in Calm     63% 0.00 in 0.0 W/m2
22:28 68.2 °F 55.0 °F 29.72 in Calm     63% 0.00 in 0.0 W/m2
22:33 68.2 °F 55.6 °F 29.72 in Calm     64% 0.00 in 0.0 W/m2
22:43 67.8 °F 55.2 °F 29.73 in Calm     64% 0.00 in 0.0 W/m2
22:53 67.8 °F 52.9 °F 29.73 in Calm     59% 0.00 in 0.0 W/m2
22:58 67.6 °F 49.8 °F 29.73 in Calm     53% 0.00 in 0.0 W/m2
23:04 67.6 °F 48.9 °F 29.73 in Calm   1.0 mph 51% 0.00 in 0.0 W/m2
23:09 67.6 °F 49.5 °F 29.73 in Calm     52% 0.00 in 0.0 W/m2
23:14 67.6 °F 48.9 °F 29.73 in Calm     51% 0.00 in 0.0 W/m2
23:19 67.5 °F 48.7 °F 29.73 in Calm     51% 0.00 in 0.0 W/m2
23:24 67.5 °F 48.7 °F 29.73 in Calm     51% 0.00 in 0.0 W/m2
23:29 67.3 °F 48.0 °F 29.73 in Calm   1.0 mph 50% 0.00 in 0.0 W/m2
23:34 67.3 °F 47.5 °F 29.73 in Calm   1.0 mph 49% 0.00 in 0.0 W/m2
23:39 67.3 °F 46.9 °F 29.73 in Calm   1.0 mph 48% 0.00 in 0.0 W/m2
23:49 67.3 °F 46.4 °F 29.73 in Calm     47% 0.00 in 0.0 W/m2
23:54 67.3 °F 46.4 °F 29.73 in Calm     47% 0.00 in 0.0 W/m2
Olympia, Windhoek, Namibia
Compliments of Weather Underground - 3.25 mb